sensor_id;sensor_type;location;lat;lon;timestamp;pressure;altitude;pressure_sealevel;temperature;humidity
69593;BME280;56796;50.122;14.468;2022-10-16T00:01:49;979.13;;;14.56;100
69593;BME280;56796;50.122;14.468;2022-10-16T00:21:25;979.02;;;14.55;100
69593;BME280;56796;50.122;14.468;2022-10-16T00:40:46;979.25;;;14.61;100
69593;BME280;56796;50.122;14.468;2022-10-16T01:00:26;979.28;;;14.67;100
69593;BME280;56796;50.122;14.468;2022-10-16T01:20:01;979.34;;;14.78;100
69593;BME280;56796;50.122;14.468;2022-10-16T01:39:35;979.31;;;14.77;100
69593;BME280;56796;50.122;14.468;2022-10-16T01:59:11;979.34;;;14.7;100
69593;BME280;56796;50.122;14.468;2022-10-16T02:18:45;979.34;;;14.65;100
69593;BME280;56796;50.122;14.468;2022-10-16T02:38:20;979.38;;;14.47;100
69593;BME280;56796;50.122;14.468;2022-10-16T02:57:55;979.44;;;14.44;100
69593;BME280;56796;50.122;14.468;2022-10-16T03:17:32;979.69;;;14.51;100
69593;BME280;56796;50.122;14.468;2022-10-16T03:37:05;979.85;;;14.52;100
69593;BME280;56796;50.122;14.468;2022-10-16T03:56:41;979.93;;;14.43;100
69593;BME280;56796;50.122;14.468;2022-10-16T04:16:16;980.09;;;14.4;100
69593;BME280;56796;50.122;14.468;2022-10-16T04:35:56;980.34;;;14.38;100
69593;BME280;56796;50.122;14.468;2022-10-16T04:55:28;980.29;;;14.31;100
69593;BME280;56796;50.122;14.468;2022-10-16T05:15:02;980.24;;;14.29;100
69593;BME280;56796;50.122;14.468;2022-10-16T05:34:38;980.54;;;14.27;100
69593;BME280;56796;50.122;14.468;2022-10-16T05:54:05;980.71;;;14.35;100
69593;BME280;56796;50.122;14.468;2022-10-16T06:13:42;980.96;;;14.45;100
69593;BME280;56796;50.122;14.468;2022-10-16T06:33:17;981.2;;;14.67;100
69593;BME280;56796;50.122;14.468;2022-10-16T06:52:51;981.47;;;14.81;100
69593;BME280;56796;50.122;14.468;2022-10-16T07:12:27;981.68;;;15.02;100
69593;BME280;56796;50.122;14.468;2022-10-16T07:32:03;981.87;;;15.28;100
69593;BME280;56796;50.122;14.468;2022-10-16T07:51:41;981.97;;;15.51;100
69593;BME280;56796;50.122;14.468;2022-10-16T08:11:14;982.08;;;15.69;100
69593;BME280;56796;50.122;14.468;2022-10-16T08:30:49;982.18;;;16;100
69593;BME280;56796;50.122;14.468;2022-10-16T08:50:29;982.43;;;16.45;99.14
69593;BME280;56796;50.122;14.468;2022-10-16T09:10:06;982.47;;;17.04;96.14
69593;BME280;56796;50.122;14.468;2022-10-16T09:29:46;982.6;;;18.6;90.86
69593;BME280;56796;50.122;14.468;2022-10-16T10:09:25;982.79;;;24.36;67.55
69593;BME280;56796;50.122;14.468;2022-10-16T10:29:10;982.77;;;24.28;64.96
69593;BME280;56796;50.122;14.468;2022-10-16T10:48:42;982.62;;;23.38;67.64
69593;BME280;56796;50.122;14.468;2022-10-16T11:07:52;982.68;;;21.98;72.19
69593;BME280;56796;50.122;14.468;2022-10-16T11:27:25;982.76;;;21.5;74.23
69593;BME280;56796;50.122;14.468;2022-10-16T11:47:08;982.68;;;24.37;66.75
69593;BME280;56796;50.122;14.468;2022-10-16T12:06:36;982.69;;;21.97;70.69
69593;BME280;56796;50.122;14.468;2022-10-16T12:26:08;982.67;;;22.6;68.84
69593;BME280;56796;50.122;14.468;2022-10-16T12:45:46;982.64;;;23.25;67.88
69593;BME280;56796;50.122;14.468;2022-10-16T13:24:59;982.86;;;22.6;70.2
69593;BME280;56796;50.122;14.468;2022-10-16T13:44:34;982.97;;;22.15;74.02
69593;BME280;56796;50.122;14.468;2022-10-16T14:04:07;983.09;;;21.67;73.81
69593;BME280;56796;50.122;14.468;2022-10-16T14:23:37;983.13;;;21.35;75.1
69593;BME280;56796;50.122;14.468;2022-10-16T14:43:14;983.06;;;21.09;76.09
69593;BME280;56796;50.122;14.468;2022-10-16T15:02:50;983.16;;;21.42;74.19
69593;BME280;56796;50.122;14.468;2022-10-16T15:22:24;983.17;;;22.56;71.44
69593;BME280;56796;50.122;14.468;2022-10-16T15:42:00;983.31;;;21.04;76.65
69593;BME280;56796;50.122;14.468;2022-10-16T16:01:35;983.48;;;20.52;78.53
69593;BME280;56796;50.122;14.468;2022-10-16T16:21:06;983.74;;;20.02;80.58
69593;BME280;56796;50.122;14.468;2022-10-16T16:40:39;983.89;;;19.73;82.23
69593;BME280;56796;50.122;14.468;2022-10-16T17:00:16;984.17;;;19.46;82.49
69593;BME280;56796;50.122;14.468;2022-10-16T17:19:52;984.38;;;19.54;82.68
69593;BME280;56796;50.122;14.468;2022-10-16T17:39:25;984.67;;;19.49;82.39
69593;BME280;56796;50.122;14.468;2022-10-16T17:59:00;984.84;;;19.27;83.42
69593;BME280;56796;50.122;14.468;2022-10-16T18:18:37;984.91;;;19.01;85.13
69593;BME280;56796;50.122;14.468;2022-10-16T18:38:09;985.27;;;18.33;89.01
69593;BME280;56796;50.122;14.468;2022-10-16T18:57:43;985.38;;;17.98;91.2
69593;BME280;56796;50.122;14.468;2022-10-16T19:17:19;985.44;;;17.71;92.95
69593;BME280;56796;50.122;14.468;2022-10-16T19:36:54;985.79;;;17.75;93.89
69593;BME280;56796;50.122;14.468;2022-10-16T19:56:29;986.09;;;17.33;95.48
69593;BME280;56796;50.122;14.468;2022-10-16T20:16:01;986.24;;;17.04;97.24
69593;BME280;56796;50.122;14.468;2022-10-16T20:35:36;986.17;;;16.89;98.64
69593;BME280;56796;50.122;14.468;2022-10-16T20:55:13;986.35;;;16.9;98.72
69593;BME280;56796;50.122;14.468;2022-10-16T21:14:45;986.42;;;16.79;99.56
69593;BME280;56796;50.122;14.468;2022-10-16T21:34:23;986.54;;;16.78;99.96
69593;BME280;56796;50.122;14.468;2022-10-16T21:53:56;986.7;;;16.54;100
69593;BME280;56796;50.122;14.468;2022-10-16T22:13:31;986.96;;;16.4;100
69593;BME280;56796;50.122;14.468;2022-10-16T22:33:07;986.99;;;16.15;100
69593;BME280;56796;50.122;14.468;2022-10-16T22:52:40;987.02;;;15.99;100
69593;BME280;56796;50.122;14.468;2022-10-16T23:12:14;987.05;;;15.83;100
69593;BME280;56796;50.122;14.468;2022-10-16T23:31:49;987.23;;;15.81;100
69593;BME280;56796;50.122;14.468;2022-10-16T23:51:26;987.32;;;15.67;100
